Aviation Digital Data Service (ADDS)

Output produced by METARs form (0804 UTC 08 February 2016)
found at http://aviationweather.gov/adds/metars/
 
KEKN 080326Z 0803/0824 00000KT P6SM SKC 
     FM081400 18004KT 3SM BR SKC 
     FM081600 18005KT 2SM -RASN BKN028 
     FM082100 24005KT 2SM -RA OVC006